Time;durP1;ratioP1;P1;durP2;ratioP2;P2;SDS_P1;SDS_P2;PMS_P1;PMS_P2;Temp;Humidity;BMP_temperature;BMP_pressure;BME280_temperature;BME280_humidity;BME280_pressure;Samples;Min_cycle;Max_cycle;Signal;HPM_P1;HPM_P2
2024/04/19 00:01:21;;;;;;;;;22.00;18.00;;;;;-143.90;100.00;75966.19;5313954;25;98402;-72
2024/04/19 00:03:48;;;;;;;;;23.67;21.00;;;;;-143.90;100.00;75974.44;5322287;25;99837;-74
2024/04/19 00:06:15;;;;;;;;;26.33;24.00;;;;;-143.90;100.00;75982.72;5317152;26;98143;-73
2024/04/19 00:08:42;;;;;;;;;24.33;24.00;;;;;-143.90;100.00;75982.72;5325105;25;100764;-73
2024/04/19 00:11:08;;;;;;;;;18.00;15.33;;;;;-143.90;100.00;75980.66;5311245;25;99073;-73
2024/04/19 00:13:35;;;;;;;;;9.67;8.33;;;;;-143.90;100.00;75978.59;5322479;25;99795;-73
2024/04/19 00:16:02;;;;;;;;;18.67;16.33;;;;;-143.90;100.00;75986.84;5319737;25;98519;-73
2024/04/19 00:18:29;;;;;;;;;12.00;9.00;;;;;-143.90;100.00;75991.00;5321900;25;99706;-73
2024/04/19 00:20:56;;;;;;;;;16.33;16.00;;;;;-143.90;100.00;75997.19;5329864;25;97723;-73
2024/04/19 00:23:24;;;;;;;;;20.67;17.33;;;;;-143.90;100.00;75999.25;5307676;25;99670;-73
2024/04/19 00:25:54;;;;;;;;;19.33;16.67;;;;;-143.90;100.00;76007.53;5316930;25;98387;-72
2024/04/19 00:28:20;;;;;;;;;15.67;14.00;;;;;-143.90;100.00;76011.66;5320800;25;102915;-73
2024/04/19 00:30:47;;;;;;;;;11.67;10.33;;;;;-143.90;100.00;76015.81;5323123;25;100960;-73
2024/04/19 00:33:14;;;;;;;;;15.00;13.67;;;;;-143.90;100.00;76017.88;5302365;25;100516;-73
2024/04/19 00:35:43;;;;;;;;;9.67;9.67;;;;;-143.90;100.00;76019.94;5319423;25;97920;-73
2024/04/19 00:38:11;;;;;;;;;16.00;12.00;;;;;-143.90;100.00;76034.41;5322373;25;97936;-73
2024/04/19 00:40:38;;;;;;;;;10.33;10.33;;;;;-143.90;100.00;76034.41;5316843;25;98138;-73
2024/04/19 00:43:05;;;;;;;;;9.00;8.00;;;;;-143.90;100.00;76034.41;5314039;25;99761;-74
2024/04/19 00:45:35;;;;;;;;;9.00;9.00;;;;;-143.90;100.00;76032.34;5314235;25;98215;-74
2024/04/19 00:48:13;;;;;;;;;15.33;12.00;;;;;-143.90;100.00;76034.41;5317156;25;99273;-73
2024/04/19 00:50:42;;;;;;;;;15.33;11.33;;;;;-143.90;100.00;76040.63;5321200;25;101097;-73
2024/04/19 00:53:12;;;;;;;;;16.00;15.00;;;;;-143.90;100.00;76038.56;5310199;25;99748;-73
2024/04/19 00:55:39;;;;;;;;;18.67;13.00;;;;;-143.90;100.00;76044.75;5321415;25;98579;-74
2024/04/19 00:58:07;;;;;;;;;16.33;12.00;;;;;-143.90;100.00;76057.16;5285813;25;98281;-73
2024/04/19 01:00:34;;;;;;;;;18.00;13.33;;;;;-143.90;100.00;76061.31;5286687;25;98463;-73
2024/04/19 01:03:01;;;;;;;;;18.33;15.33;;;;;-143.90;100.00;76075.78;5306836;25;100468;-74
2024/04/19 01:05:28;;;;;;;;;13.67;12.00;;;;;-143.90;100.00;76081.97;5306478;25;98879;-73
2024/04/19 01:07:55;;;;;;;;;17.67;16.00;;;;;-143.90;100.00;76092.31;5316870;25;99840;-73
2024/04/19 01:10:22;;;;;;;;;10.00;9.25;;;;;-143.90;100.00;76094.38;5312072;25;99160;-72
2024/04/19 01:12:49;;;;;;;;;9.75;9.75;;;;;-143.90;100.00;76098.53;5317857;25;99722;-73
2024/04/19 01:15:17;;;;;;;;;13.00;12.00;;;;;-143.90;100.00;76098.53;5310371;25;98590;-72
2024/04/19 01:17:44;;;;;;;;;15.33;13.00;;;;;-143.90;100.00;76102.66;5320333;25;98926;-73
2024/04/19 01:20:11;;;;;;;;;15.67;13.00;;;;;-143.90;100.00;76115.06;5320282;25;99562;-73
2024/04/19 01:22:38;;;;;;;;;16.00;14.67;;;;;-143.90;100.00;76115.06;5323118;25;99720;-73
2024/04/19 01:25:11;;;;;;;;;19.67;15.00;;;;;-143.90;100.00;76123.34;5312246;25;98995;-73
2024/04/19 01:27:38;;;;;;;;;16.67;15.00;;;;;-143.90;100.00;76131.59;5318391;25;100040;-73
2024/04/19 01:30:06;;;;;;;;;20.00;16.00;;;;;-143.90;100.00;76137.81;5320709;25;98519;-73
2024/04/19 01:32:32;;;;;;;;;19.00;18.67;;;;;-143.90;100.00;76139.88;5314542;25;102511;-73
2024/04/19 01:34:59;;;;;;;;;19.33;16.00;;;;;-143.90;100.00;76137.81;5318270;25;98346;-73
2024/04/19 01:37:26;;;;;;;;;15.33;13.00;;;;;-143.90;100.00;76144.00;5309951;25;98183;-73
2024/04/19 01:39:53;;;;;;;;;21.67;16.00;;;;;-143.90;100.00;76152.28;5320229;25;98111;-73
2024/04/19 01:42:20;;;;;;;;;16.33;15.33;;;;;-143.90;100.00;76152.28;5303974;25;99917;-73
2024/04/19 01:44:46;;;;;;;;;10.00;10.00;;;;;-143.90;100.00;76156.41;5274882;25;98191;-73
2024/04/19 01:47:13;;;;;;;;;15.67;15.00;;;;;-143.90;100.00;76162.63;5288215;25;97850;-73
2024/04/19 01:49:41;;;;;;;;;15.00;11.33;;;;;-143.90;100.00;76164.69;5319353;25;98011;-73
2024/04/19 01:52:08;;;;;;;;;11.75;9.50;;;;;-143.90;100.00;76179.16;5316677;25;99815;-73
2024/04/19 01:54:34;;;;;;;;;9.00;9.00;;;;;-143.90;100.00;76181.25;5319160;25;98686;-73
2024/04/19 01:57:02;;;;;;;;;9.00;8.00;;;;;-143.90;100.00;76187.44;5309969;25;98183;-74
2024/04/19 01:59:29;;;;;;;;;11.33;9.33;;;;;-143.90;100.00;76189.50;5316730;25;98702;-72
2024/04/19 02:01:55;;;;;;;;;23.67;15.33;;;;;-143.90;100.00;76201.91;5314419;25;99796;-72
2024/04/19 02:04:22;;;;;;;;;20.67;17.00;;;;;-143.90;100.00;76197.78;5323071;25;97920;-72
2024/04/19 02:06:49;;;;;;;;;15.33;14.33;;;;;-143.90;100.00;76203.97;5324890;25;99283;-73
2024/04/19 02:09:16;;;;;;;;;19.33;15.67;;;;;-143.90;100.00;76210.19;5313496;25;98523;-73
2024/04/19 02:11:42;;;;;;;;;26.33;17.33;;;;;-143.90;100.00;76216.41;5318146;25;99753;-72
2024/04/19 02:14:09;;;;;;;;;16.33;14.33;;;;;-143.90;100.00;76214.31;5320767;25;98353;-72
2024/04/19 02:16:36;;;;;;;;;19.67;16.33;;;;;-143.90;100.00;76226.72;5315847;25;98257;-74
2024/04/19 02:19:02;;;;;;;;;15.33;15.00;;;;;-143.90;100.00;76228.81;5318501;25;98529;-73
2024/04/19 02:21:30;;;;;;;;;13.00;13.00;;;;;-143.90;100.00;76222.59;5315850;25;99706;-73
2024/04/19 02:23:57;;;;;;;;;12.00;9.67;;;;;-143.90;100.00;76222.59;5318529;25;98213;-73
2024/04/19 02:26:24;;;;;;;;;11.67;10.33;;;;;-143.90;100.00;76218.47;5322349;25;99928;-73
2024/04/19 02:31:36;;;;;;;;;21.67;18.00;;;;;-143.90;100.00;76235.00;5320628;25;104550;-73
2024/04/19 02:34:03;;;;;;;;;20.33;15.67;;;;;-143.90;100.00;76230.88;5301432;25;100116;-73
2024/04/19 02:36:29;;;;;;;;;20.00;17.33;;;;;-143.90;100.00;76232.94;5317980;25;98663;-73
2024/04/19 02:38:56;;;;;;;;;13.33;12.67;;;;;-143.90;100.00;76228.81;5325847;25;98140;-73
2024/04/19 02:41:24;;;;;;;;;16.00;15.00;;;;;-143.90;100.00;76235.00;5310494;25;99761;-73
2024/04/19 02:43:52;;;;;;;;;17.67;15.33;;;;;-143.90;100.00;76232.94;5326677;25;98191;-73
2024/04/19 02:46:19;;;;;;;;;18.00;13.00;;;;;-143.90;100.00;76239.13;5323888;25;98250;-73
2024/04/19 02:48:49;;;;;;;;;11.33;11.00;;;;;-143.90;100.00;76235.00;5323328;25;98088;-73
2024/04/19 02:51:16;;;;;;;;;14.00;13.33;;;;;-143.90;100.00;76235.00;5309297;25;104538;-72
2024/04/19 02:53:43;;;;;;;;;12.00;11.33;;;;;-143.90;100.00;76237.06;5321171;25;98143;-73
2024/04/19 02:56:10;;;;;;;;;13.33;11.33;;;;;-143.90;100.00;76239.13;5322457;25;98527;-72
2024/04/19 02:58:36;;;;;;;;;13.33;11.33;;;;;-143.90;100.00;76243.28;5320383;25;98382;-73
2024/04/19 03:01:03;;;;;;;;;11.33;11.33;;;;;-143.90;100.00;76237.06;5318633;25;98793;-73
2024/04/19 03:03:30;;;;;;;;;8.00;8.00;;;;;-143.90;100.00;76232.94;5316742;25;101702;-73
2024/04/19 03:05:57;;;;;;;;;14.67;12.00;;;;;-143.90;100.00;76237.06;5320734;25;98343;-73
2024/04/19 03:08:25;;;;;;;;;9.00;8.00;;;;;-143.90;100.00;76239.13;5322101;25;98416;-73
2024/04/19 03:10:52;;;;;;;;;12.67;11.00;;;;;-143.90;100.00;76243.28;5319895;25;99842;-73
2024/04/19 03:13:19;;;;;;;;;12.33;11.00;;;;;-143.90;100.00;76247.41;5320120;25;98506;-72
2024/04/19 03:15:46;;;;;;;;;11.00;10.67;;;;;-143.90;100.00;76243.28;5321037;25;97882;-73
2024/04/19 03:18:13;;;;;;;;;15.33;11.33;;;;;-143.90;100.00;76243.28;5321874;25;98582;-73
2024/04/19 03:20:39;;;;;;;;;16.33;12.33;;;;;-143.90;100.00;76241.22;5313578;25;100006;-73
2024/04/19 03:23:06;;;;;;;;;9.67;9.00;;;;;-143.90;100.00;76243.28;5318753;25;98263;-73
2024/04/19 03:25:36;;;;;;;;;17.00;11.33;;;;;-143.90;100.00;76241.22;5310152;25;98542;-73
2024/04/19 03:28:04;;;;;;;;;11.33;10.67;;;;;-143.90;100.00;76245.34;5316084;25;98304;-73
2024/04/19 03:30:33;;;;;;;;;20.67;16.33;;;;;-143.90;100.00;76237.06;5319564;25;100063;-72
2024/04/19 03:33:00;;;;;;;;;27.67;18.67;;;;;-143.90;100.00;76230.88;5317577;25;103763;-72
2024/04/19 03:35:27;;;;;;;;;18.33;15.00;;;;;-143.90;100.00;76232.94;5313308;25;97949;-72
2024/04/19 03:37:54;;;;;;;;;16.00;15.00;;;;;-143.90;100.00;76235.00;5324008;25;99198;-73
2024/04/19 03:40:21;;;;;;;;;11.33;8.67;;;;;-143.90;100.00;76235.00;5313494;25;99758;-72
2024/04/19 03:42:48;;;;;;;;;12.00;12.00;;;;;-143.90;100.00;76235.00;5322827;25;98040;-73
2024/04/19 03:48:01;;;;;;;;;19.00;14.00;;;;;-143.90;100.00;76220.53;5316525;25;98547;-73
2024/04/19 03:50:28;;;;;;;;;16.67;11.67;;;;;-143.90;100.00;76218.47;5317604;25;99886;-74
2024/04/19 03:52:55;;;;;;;;;15.33;12.33;;;;;-143.90;100.00;76214.31;5319839;25;98467;-72
2024/04/19 03:55:22;;;;;;;;;13.33;8.00;;;;;-143.90;100.00;76206.06;5309431;25;97945;-73
2024/04/19 03:57:48;;;;;;;;;15.00;12.00;;;;;-143.90;100.00;76203.97;5323213;26;98322;-73
2024/04/19 04:00:16;;;;;;;;;14.33;11.67;;;;;-143.90;100.00;76187.44;5317629;25;99706;-73
2024/04/19 04:02:42;;;;;;;;;13.67;12.33;;;;;-143.90;100.00;76185.38;5314803;25;99425;-73
2024/04/19 04:05:09;;;;;;;;;18.33;15.00;;;;;-143.90;100.00;76181.25;5310363;25;98218;-72
2024/04/19 04:07:36;;;;;;;;;20.33;15.00;;;;;-143.90;100.00;76179.16;5317988;25;98332;-73
2024/04/19 04:10:03;;;;;;;;;13.00;11.33;;;;;-143.90;100.00;76168.81;5322856;25;99763;-73
2024/04/19 04:12:32;;;;;;;;;16.67;12.67;;;;;-143.90;100.00;76166.75;5321611;25;99278;-73
2024/04/19 04:14:59;;;;;;;;;16.67;14.33;;;;;-143.90;100.00;76168.81;5311603;25;99972;-72
2024/04/19 04:17:26;;;;;;;;;9.33;7.00;;;;;-143.90;100.00;76158.50;5306382;25;98414;-73
2024/04/19 04:19:53;;;;;;;;;18.00;11.67;;;;;-143.90;100.00;76152.28;5315891;25;99831;-72
2024/04/19 04:22:20;;;;;;;;;13.67;11.67;;;;;-143.90;100.00;76148.16;5320886;25;98647;-73
2024/04/19 04:24:47;;;;;;;;;12.67;9.00;;;;;-143.90;100.00;76144.00;5322006;26;97869;-72
2024/04/19 04:27:14;;;;;;;;;18.33;15.00;;;;;-143.90;100.00;76133.69;5314902;25;99373;-73
2024/04/19 04:29:41;;;;;;;;;15.00;12.00;;;;;-143.90;100.00;76131.59;5318186;25;100125;-73
2024/04/19 04:32:08;;;;;;;;;17.33;15.00;;;;;-143.90;100.00;76121.28;5316133;25;99992;-72
2024/04/19 04:34:35;;;;;;;;;17.67;14.33;;;;;-143.90;100.00;76106.78;5311968;25;98787;-72
2024/04/19 04:37:02;;;;;;;;;13.67;13.00;;;;;-143.90;100.00;76098.53;5323269;25;98566;-72
2024/04/19 04:39:29;;;;;;;;;19.00;16.67;;;;;-143.90;100.00;76086.13;5291623;26;100015;-71
2024/04/19 04:41:55;;;;;;;;;19.67;16.00;;;;;-143.90;100.00;76069.56;5320040;25;98387;-72
2024/04/19 04:44:22;;;;;;;;;17.33;13.00;;;;;-143.90;100.00;76057.16;5324875;25;98532;-73
2024/04/19 04:46:49;;;;;;;;;17.33;15.67;;;;;-143.90;100.00;76038.56;5314185;25;98610;-72
2024/04/19 04:49:16;;;;;;;;;17.67;16.67;;;;;-143.90;100.00;76024.06;5312567;25;99867;-73
2024/04/19 04:51:42;;;;;;;;;18.33;15.00;;;;;-143.90;100.00;76009.59;5314795;25;101562;-73
2024/04/19 04:54:09;;;;;;;;;26.33;21.00;;;;;-143.90;100.00;76011.66;5324110;25;99908;-74
2024/04/19 04:56:36;;;;;;;;;26.67;21.67;;;;;-143.90;100.00;76003.41;5318628;25;97890;-74
2024/04/19 04:59:03;;;;;;;;;27.00;22.33;;;;;-143.90;100.00;75995.13;5313542;25;99852;-74
2024/04/19 05:01:29;;;;;;;;;19.33;18.67;;;;;-143.90;100.00;75974.44;5310813;25;98025;-72
2024/04/19 05:03:56;;;;;;;;;24.67;19.67;;;;;-143.90;100.00;75953.78;5319973;25;98262;-72
2024/04/19 05:06:23;;;;;;;;;25.00;19.67;;;;;-143.90;100.00;75931.03;5322361;25;98317;-73
2024/04/19 05:08:50;;;;;;;;;23.67;20.67;;;;;-143.90;100.00;75920.69;5318342;25;103462;-75
2024/04/19 05:11:16;;;;;;;;;19.00;16.67;;;;;-143.90;100.00;75910.34;5311017;26;98469;-72
2024/04/19 05:13:43;;;;;;;;;21.67;16.33;;;;;-143.90;100.00;75866.94;5313972;25;97905;-73
2024/04/19 05:16:10;;;;;;;;;17.00;14.67;;;;;-143.90;100.00;75821.44;5319752;25;98445;-72
2024/04/19 05:18:37;;;;;;;;;16.33;16.33;;;;;-143.90;100.00;75788.34;5320529;25;99847;-73
2024/04/19 05:21:04;;;;;;;;;14.67;13.67;;;;;-143.90;100.00;75767.69;5315393;25;99034;-73
2024/04/19 05:23:30;;;;;;;;;17.00;16.00;;;;;-143.90;100.00;75757.34;5346732;25;99224;-73
2024/04/19 05:26:01;;;;;;;;;20.67;16.33;;;;;-143.90;100.00;75759.41;5317220;25;98481;-73
2024/04/19 05:28:28;;;;;;;;;18.33;17.00;;;;;-143.90;100.00;75749.06;5315043;25;100047;-73
2024/04/19 05:30:57;;;;;;;;;34.00;29.00;;;;;-143.90;100.00;75755.28;5320080;25;98347;-73
2024/04/19 05:33:23;;;;;;;;;29.33;25.00;;;;;-143.90;100.00;75753.19;5300961;25;101613;-73
2024/04/19 05:35:50;;;;;;;;;32.67;23.00;;;;;-143.90;100.00;75751.13;5318722;25;98563;-73
2024/04/19 05:38:17;;;;;;;;;19.75;17.25;;;;;-143.90;100.00;75755.28;5322530;25;99841;-73
2024/04/19 05:40:44;;;;;;;;;18.67;17.00;;;;;-143.90;100.00;75734.59;5291428;25;97947;-73
2024/04/19 05:43:10;;;;;;;;;20.75;15.00;;;;;-143.90;100.00;75660.16;5298777;25;99363;-72
2024/04/19 05:45:37;;;;;;;;;17.50;14.75;;;;;-143.90;100.00;75571.25;5314495;25;99317;-73
2024/04/19 05:48:04;;;;;;;;;16.00;13.50;;;;;-143.90;100.00;75519.56;5314890;25;99749;-73
2024/04/19 05:50:31;;;;;;;;;16.00;14.00;;;;;-143.90;100.00;75457.53;5318608;25;98284;-72
2024/04/19 05:52:58;;;;;;;;;20.00;15.75;;;;;-143.90;100.00;75414.13;5313962;25;97891;-73
2024/04/19 05:55:25;;;;;;;;;15.25;13.00;;;;;-143.90;100.00;75407.91;5303577;25;99635;-73
2024/04/19 05:57:51;;;;;;;;;16.75;13.50;;;;;-143.90;100.00;75407.91;5315779;25;99788;-73
2024/04/19 06:00:18;;;;;;;;;15.00;12.75;;;;;-143.90;100.00;75343.81;5314299;25;98018;-73
2024/04/19 06:02:45;;;;;;;;;15.50;14.75;;;;;-143.90;100.00;75267.31;5316197;25;98153;-72
2024/04/19 06:05:12;;;;;;;;;21.00;19.00;;;;;-143.90;100.00;75199.09;5307906;25;98535;-73
2024/04/19 06:07:39;;;;;;;;;14.75;13.00;;;;;-143.90;100.00;75147.41;5311900;25;102190;-72
2024/04/19 06:10:06;;;;;;;;;16.25;13.25;;;;;-143.90;97.46;75108.13;5310858;26;98578;-73
2024/04/19 06:12:33;;;;;;;;;13.50;12.50;;;;;-143.90;97.06;75058.50;5318750;25;99101;-73
2024/04/19 06:15:00;;;;;;;;;13.75;12.00;;;;;-143.90;96.72;75010.97;5320193;25;98463;-73
2024/04/19 06:17:27;;;;;;;;;11.25;9.25;;;;;-143.90;95.17;74967.56;5307069;25;100419;-72
2024/04/19 06:19:54;;;;;;;;;8.75;8.75;;;;;-143.90;92.94;74924.13;5316994;26;102167;-73
2024/04/19 06:22:20;;;;;;;;;11.50;9.50;;;;;-143.90;92.41;74878.66;5315124;25;97975;-72
2024/04/19 06:24:47;;;;;;;;;14.50;11.00;;;;;-143.90;91.34;74833.19;5319423;26;98878;-72
2024/04/19 06:27:14;;;;;;;;;9.50;9.50;;;;;-143.90;89.73;74789.78;5274499;25;99833;-73
2024/04/19 06:29:41;;;;;;;;;12.00;10.00;;;;;-143.90;87.35;74746.34;5315289;25;98256;-73
2024/04/19 06:32:09;;;;;;;;;8.25;8.25;;;;;-143.90;86.15;74707.09;5317031;25;99196;-73
2024/04/19 06:34:36;;;;;;;;;9.00;8.25;;;;;-143.90;83.40;74678.16;5319903;25;98155;-73
2024/04/19 06:37:04;;;;;;;;;8.75;8.00;;;;;-143.90;80.58;74651.28;5310074;25;99729;-72
2024/04/19 06:39:31;;;;;;;;;12.00;12.00;;;;;-143.90;70.20;74624.41;5317700;25;99130;-73
2024/04/19 06:41:58;;;;;;;;;12.25;9.25;;;;;-143.90;69.00;74638.88;5319259;26;98248;-72
2024/04/19 06:44:25;;;;;;;;;8.00;7.75;;;;;-143.90;71.36;74601.66;5320434;26;98312;-72
2024/04/19 06:46:51;;;;;;;;;4.50;4.00;;;;;-143.90;69.84;74545.84;5316474;25;99481;-73
2024/04/19 06:49:19;;;;;;;;;7.50;4.50;;;;;-143.90;68.55;74521.03;5304688;25;98633;-73
2024/04/19 06:51:46;;;;;;;;;5.00;5.00;;;;;-143.90;60.11;74562.38;5315276;25;97859;-72
2024/04/19 06:54:13;;;;;;;;;5.25;5.25;;;;;-143.90;58.35;74630.59;5313042;26;98559;-72
2024/04/19 06:56:40;;;;;;;;;5.75;5.00;;;;;-143.90;63.28;74671.94;5317093;25;99778;-73
2024/04/19 06:59:11;;;;;;;;;5.00;5.00;;;;;-143.90;64.33;74661.59;5315323;25;98032;-72
2024/04/19 07:01:37;;;;;;;;;4.25;4.25;;;;;-143.90;65.96;74659.53;5313624;25;98126;-73
2024/04/19 07:04:04;;;;;;;;;3.75;3.75;;;;;-143.90;64.48;74669.88;5312677;25;98240;-73
2024/04/19 07:06:31;;;;;;;;;6.25;6.25;;;;;-143.90;61.29;74700.88;5317217;25;99896;-72
2024/04/19 07:09:09;;;;;;;;;5.00;3.25;;;;;-143.90;61.94;74700.88;5313225;25;98859;-72
2024/04/19 07:11:36;;;;;;;;;4.75;4.00;;;;;-143.90;60.56;74669.88;5322534;25;98677;-72
2024/04/19 07:14:03;;;;;;;;;8.25;4.75;;;;;-143.90;59.10;74643.00;5316495;25;97786;-72
2024/04/19 07:16:29;;;;;;;;;4.00;4.00;;;;;-143.90;57.95;74603.72;5315393;25;99790;-72
2024/04/19 07:18:56;;;;;;;;;6.25;5.00;;;;;-143.90;55.29;74564.44;5314325;25;98913;-72
2024/04/19 07:21:23;;;;;;;;;3.75;3.00;;;;;-143.90;54.85;74560.31;5305671;25;98220;-72
2024/04/19 07:23:51;;;;;;;;;5.25;3.75;;;;;-143.90;54.34;74595.47;5319300;25;101088;-73
2024/04/19 07:26:18;;;;;;;;;4.00;3.75;;;;;-143.90;54.46;74632.66;5314341;25;99873;-72
2024/04/19 07:28:45;;;;;;;;;5.00;4.75;;;;;-143.90;52.53;74671.94;5319949;25;97927;-72
2024/04/19 07:31:12;;;;;;;;;5.50;4.00;;;;;-143.90;51.73;74702.94;5311614;25;98007;-72
2024/04/19 07:33:39;;;;;;;;;6.00;5.00;;;;;-143.90;50.78;74715.34;5313395;25;98468;-72
2024/04/19 07:36:06;;;;;;;;;7.50;7.25;;;;;-143.90;47.71;74709.16;5317934;26;99946;-72
2024/04/19 07:38:35;;;;;;;;;4.50;4.50;;;;;-143.90;48.49;74705.00;5318703;25;97931;-72
2024/04/19 07:41:03;;;;;;;;;8.00;7.50;;;;;-143.90;46.56;74729.81;5314266;25;98967;-73
2024/04/19 07:43:30;;;;;;;;;7.75;7.00;;;;;-143.90;44.37;74738.09;5339272;26;98443;-72
2024/04/19 07:45:56;;;;;;;;;5.75;5.00;;;;;-143.90;45.51;74798.03;5317488;26;99811;-73
2024/04/19 07:48:23;;;;;;;;;9.00;7.00;;;;;-143.90;44.96;74820.78;5313794;25;98202;-72
2024/04/19 07:50:50;;;;;;;;;9.00;6.00;;;;;-143.90;46.01;74878.66;5316940;25;98670;-72
2024/04/19 07:53:20;;;;;;;;;8.75;8.00;;;;;-143.90;47.34;74911.72;5302129;25;98355;-73
2024/04/19 07:55:47;;;;;;;;;7.25;7.00;;;;;-143.90;46.93;74924.13;5314677;25;99777;-72
2024/04/19 07:58:14;;;;;;;;;6.25;4.75;;;;;-143.90;47.41;74886.94;5319077;25;98439;-73
2024/04/19 08:00:41;;;;;;;;;8.00;7.00;;;;;-143.90;47.38;74849.72;5320690;25;98659;-73
2024/04/19 08:03:08;;;;;;;;;6.00;5.00;;;;;-143.90;46.94;74818.72;5299390;25;100071;-74
2024/04/19 08:05:34;;;;;;;;;6.00;5.00;;;;;-143.90;45.73;74800.09;5311251;25;100111;-73
2024/04/19 08:08:01;;;;;;;;;8.00;5.00;;;;;-143.90;46.68;74812.50;5324672;25;97862;-73
2024/04/19 08:10:28;;;;;;;;;5.00;5.00;;;;;-143.90;46.64;74845.59;5316472;25;99720;-73
2024/04/19 08:12:59;;;;;;;;;4.00;4.00;;;;;-143.90;47.17;74862.13;5319195;25;97974;-73
2024/04/19 08:15:26;;;;;;;;;9.50;7.00;;;;;-143.90;47.51;74866.25;5304215;25;99998;-73
2024/04/19 08:17:52;;;;;;;;;4.50;3.75;;;;;-143.90;47.04;74855.91;5319104;25;98421;-73
2024/04/19 08:20:19;;;;;;;;;7.00;5.00;;;;;-143.90;47.34;74855.91;5313177;25;103504;-73
2024/04/19 08:22:46;;;;;;;;;6.50;4.50;;;;;-143.90;46.77;74851.78;5321418;25;98401;-73
2024/04/19 08:25:12;;;;;;;;;5.00;4.25;;;;;-143.90;47.31;74853.84;5309463;25;99744;-74
2024/04/19 08:27:39;;;;;;;;;4.50;4.00;;;;;-143.90;46.43;74843.53;5314402;25;98199;-72
2024/04/19 08:30:07;;;;;;;;;5.50;5.00;;;;;-143.90;46.40;74853.84;5316768;25;97719;-72
2024/04/19 08:32:33;;;;;;;;;7.75;7.00;;;;;-143.90;46.27;74849.72;5322038;25;98250;-71
2024/04/19 08:35:00;;;;;;;;;8.00;6.00;;;;;-143.90;46.73;74858.00;5317325;25;104446;-71
2024/04/19 08:37:27;;;;;;;;;5.00;4.50;;;;;-143.90;45.96;74843.53;5306684;25;98042;-73
2024/04/19 08:39:54;;;;;;;;;6.50;5.00;;;;;-143.90;45.90;74837.31;5321210;26;98555;-72
2024/04/19 08:42:21;;;;;;;;;4.50;4.50;;;;;-143.90;46.29;74812.50;5320828;25;98784;-73
2024/04/19 08:44:50;;;;;;;;;3.00;3.00;;;;;-143.90;45.50;74760.81;5324619;25;99916;-72
2024/04/19 08:47:18;;;;;;;;;7.00;7.00;;;;;-143.90;44.23;74767.03;5311408;25;99704;-72
2024/04/19 08:49:47;;;;;;;;;4.00;4.00;;;;;-143.90;45.22;74742.22;5315689;25;98122;-73
2024/04/19 08:52:16;;;;;;;;;5.00;5.00;;;;;-143.90;43.58;74729.81;5323687;25;99592;-72
2024/04/19 08:55:06;;;;;;;;;5.00;5.00;;;;;-143.90;43.88;74705.00;5315325;25;106143;-73
2024/04/19 08:57:38;;;;;;;;;4.25;3.75;;;;;-143.90;44.53;74688.47;5309597;25;98778;-72
2024/04/19 09:00:06;;;;;;;;;5.00;3.00;;;;;-143.90;45.08;74671.94;5315719;25;97724;-73
2024/04/19 09:02:40;;;;;;;;;4.00;4.00;;;;;-143.90;44.49;74663.66;5315491;25;98107;-73
2024/04/19 09:05:07;;;;;;;;;4.50;3.50;;;;;-143.90;45.64;74632.66;5315452;25;99739;-73
2024/04/19 09:07:34;;;;;;;;;5.75;5.00;;;;;-143.90;45.14;74612.00;5281521;25;99907;-73
2024/04/19 09:10:01;;;;;;;;;6.00;4.50;;;;;-143.90;44.44;74599.59;5313613;25;101117;-73
2024/04/19 09:12:32;;;;;;;;;8.75;4.50;;;;;-143.90;44.04;74581.00;5318571;25;103057;-74
2024/04/19 09:15:00;;;;;;;;;4.50;4.00;;;;;-143.90;44.59;74558.25;5311426;25;104506;-74
2024/04/19 09:17:28;;;;;;;;;6.00;5.00;;;;;-143.90;42.14;74539.66;5319411;25;98155;-73
2024/04/19 09:19:57;;;;;;;;;5.25;5.00;;;;;-143.90;43.17;74527.25;5321681;25;98095;-73
2024/04/19 09:22:24;;;;;;;;;3.75;3.75;;;;;-143.90;42.62;74502.44;5319676;25;98324;-73
2024/04/19 09:24:53;;;;;;;;;3.25;3.25;;;;;-143.90;42.83;74485.91;5319708;25;99790;-73
2024/04/19 09:27:22;;;;;;;;;4.25;4.25;;;;;-143.90;41.99;74450.75;5311483;25;100715;-73
2024/04/19 09:29:52;;;;;;;;;2.00;2.00;;;;;-143.90;42.13;74461.09;5317241;25;99004;-73
2024/04/19 09:32:20;;;;;;;;;3.50;2.00;;;;;-143.90;42.15;74436.28;5312961;26;98052;-73
2024/04/19 09:34:48;;;;;;;;;5.00;5.00;;;;;-143.90;41.01;74430.09;5315742;25;99848;-73
2024/04/19 09:37:15;;;;;;;;;4.00;3.75;;;;;-143.90;40.86;74384.63;5311497;25;98800;-72
2024/04/19 09:39:42;;;;;;;;;3.25;2.50;;;;;-143.90;41.07;74384.63;5319507;25;98621;-72
2024/04/19 09:42:09;;;;;;;;;4.00;4.00;;;;;-143.90;40.73;74378.41;5318857;25;97957;-73
2024/04/19 09:44:40;;;;;;;;;4.00;3.00;;;;;-143.90;40.08;74390.81;5321956;25;100158;-73
2024/04/19 09:47:10;;;;;;;;;4.75;3.25;;;;;-143.90;40.69;74372.22;5311951;25;98240;-73
2024/04/19 09:49:42;;;;;;;;;4.25;4.25;;;;;-143.90;39.13;74357.75;5282095;26;98251;-72
2024/04/19 09:52:22;;;;;;;;;6.00;6.00;;;;;-143.90;39.44;74368.09;5316119;25;98205;-73
2024/04/19 09:55:09;;;;;;;;;5.00;5.00;;;;;-143.90;39.45;74353.63;5291081;25;99758;-73
2024/04/19 09:57:36;;;;;;;;;4.00;3.50;;;;;-143.90;40.71;74374.28;5305686;25;98230;-72
2024/04/19 10:00:03;;;;;;;;;1.00;1.00;;;;;-143.90;41.46;74390.81;5314090;25;98515;-72
2024/04/19 10:02:30;;;;;;;;;5.50;5.50;;;;;-143.90;40.46;74415.63;5318913;25;98215;-72
2024/04/19 10:05:05;;;;;;;;;10.25;6.00;;;;;-143.90;39.71;74419.75;5308040;25;104516;-72
2024/04/19 10:07:32;;;;;;;;;5.00;4.00;;;;;-143.90;40.64;74374.28;5312680;25;98149;-72
2024/04/19 10:10:02;;;;;;;;;7.50;6.00;;;;;-143.90;39.42;74353.63;5310366;25;99166;-73
2024/04/19 10:12:32;;;;;;;;;5.75;5.25;;;;;-143.90;39.58;74355.69;5315133;25;98388;-73
2024/04/19 10:14:59;;;;;;;;;5.00;5.00;;;;;-143.90;40.02;74353.63;5325260;25;104510;-74
2024/04/19 10:17:26;;;;;;;;;5.00;5.00;;;;;-143.90;40.14;74368.09;5307366;25;97890;-73
2024/04/19 10:19:54;;;;;;;;;6.00;4.00;;;;;-143.90;40.17;74345.34;5327138;25;97991;-74
2024/04/19 10:22:22;;;;;;;;;8.75;8.00;;;;;-143.90;40.32;74332.94;5318102;25;97814;-72
2024/04/19 10:25:01;;;;;;;;;6.00;5.00;;;;;-143.90;40.34;74297.81;5315947;25;99811;-73
2024/04/19 10:27:29;;;;;;;;;10.00;9.00;;;;;-143.90;40.91;74283.34;5304229;25;97991;-72
2024/04/19 10:30:03;;;;;;;;;6.25;5.75;;;;;-143.90;40.46;74237.88;5332178;25;97798;-73
2024/04/19 10:32:30;;;;;;;;;10.00;8.00;;;;;-143.90;41.12;74229.59;5317504;25;98004;-74
2024/04/19 10:34:56;;;;;;;;;6.00;5.75;;;;;-143.90;41.29;74229.59;5327554;25;102379;-73
2024/04/19 10:37:23;;;;;;;;;8.00;6.50;;;;;-143.90;40.00;74213.06;5302882;25;98800;-73
2024/04/19 10:39:50;;;;;;;;;7.25;6.50;;;;;-143.90;40.32;74242.00;5322463;25;97917;-73
2024/04/19 10:42:23;;;;;;;;;5.75;5.75;;;;;-143.90;40.57;74246.13;5322038;25;98948;-74
2024/04/19 10:44:51;;;;;;;;;4.00;4.00;;;;;-143.90;40.89;74250.25;5322257;25;99756;-73
2024/04/19 10:47:20;;;;;;;;;6.00;5.25;;;;;-143.90;40.83;74227.53;5290241;25;98420;-74
2024/04/19 10:49:47;;;;;;;;;6.75;5.00;;;;;-143.90;40.62;74184.13;5315075;25;98032;-73
2024/04/19 10:52:19;;;;;;;;;5.00;4.00;;;;;-143.90;40.38;74177.94;5330888;26;97994;-73
2024/04/19 10:54:46;;;;;;;;;5.50;5.00;;;;;-143.90;40.59;74175.84;5319601;25;99717;-73
2024/04/19 10:57:13;;;;;;;;;4.50;4.00;;;;;-143.90;39.75;74194.47;5314189;25;98920;-74
2024/04/19 10:59:39;;;;;;;;;3.00;3.00;;;;;-143.90;39.30;74188.25;5320312;25;99973;-73
2024/04/19 11:02:07;;;;;;;;;4.00;4.00;;;;;-143.90;39.34;74221.31;5319621;25;98492;-73
2024/04/19 11:04:33;;;;;;;;;3.75;3.00;;;;;-143.90;39.72;74217.19;5321134;25;99816;-74
2024/04/19 11:07:00;;;;;;;;;3.75;2.75;;;;;-143.90;39.34;74229.59;5328305;25;98276;-73
2024/04/19 11:09:27;;;;;;;;;2.50;2.00;;;;;-143.90;39.48;74246.13;5307783;25;101436;-74
2024/04/19 11:11:56;;;;;;;;;4.25;3.75;;;;;-143.90;40.18;74270.94;5324068;25;97899;-74